Time;durP1;ratioP1;P1;durP2;ratioP2;P2;SDS_P1;SDS_P2;PMS_P1;PMS_P2;Temp;Humidity;BMP_temperature;BMP_pressure;BME280_temperature;BME280_humidity;BME280_pressure;Samples;Min_cycle;Max_cycle;Signal;HPM_P1;HPM_P2
2022/07/11 00:02:19;;;;;;;5.57;2.20;;;;;;;19.62;53.42;99115.56;5076640;28;20027;-95
2022/07/11 00:04:46;;;;;;;4.25;2.83;;;;;;;19.52;54.64;99109.38;5060379;28;20032;-95
2022/07/11 00:07:12;;;;;;;6.10;2.67;;;;;;;19.53;54.94;99110.97;5048485;28;20407;-95
2022/07/11 00:09:37;;;;;;;3.95;2.28;;;;;;;19.39;54.41;99094.88;5039815;28;20031;-96
2022/07/11 00:12:03;;;;;;;2.85;2.20;;;;;;;19.48;54.20;99097.50;5040482;28;20036;-96
2022/07/11 00:14:29;;;;;;;2.95;2.22;;;;;;;19.34;54.17;99089.63;5039637;28;20510;-96
2022/07/11 00:16:54;;;;;;;4.57;2.42;;;;;;;19.43;54.45;99111.38;5039640;28;20025;-95
2022/07/11 00:19:20;;;;;;;4.57;2.28;;;;;;;19.29;54.91;99094.47;5039620;28;20024;-95
2022/07/11 00:21:47;;;;;;;3.15;2.20;;;;;;;19.40;54.36;99106.56;5039558;28;20490;-95
2022/07/11 00:24:12;;;;;;;3.38;2.30;;;;;;;19.34;54.85;99099.72;5041810;28;20089;-95
2022/07/11 00:26:38;;;;;;;4.80;2.00;;;;;;;19.29;54.36;99092.53;5044216;28;20020;-95
2022/07/11 00:29:04;;;;;;;4.50;2.00;;;;;;;19.52;53.58;99114.03;5043609;28;20047;-96
2022/07/11 00:31:30;;;;;;;3.83;2.05;;;;;;;19.49;52.05;99104.59;5043573;28;20025;-95
2022/07/11 00:33:55;;;;;;;2.72;1.65;;;;;;;19.62;50.56;99115.56;5043954;28;20115;-95
2022/07/11 00:36:21;;;;;;;2.53;1.67;;;;;;;19.69;49.50;99102.16;5043167;28;20115;-95
2022/07/11 00:38:47;;;;;;;3.38;1.70;;;;;;;19.77;49.23;99106.78;5043340;28;20104;-95
2022/07/11 00:41:12;;;;;;;5.32;1.80;;;;;;;19.90;48.25;99115.81;5043757;28;20020;-95
2022/07/11 00:43:38;;;;;;;3.13;1.40;;;;;;;20.00;48.17;99109.91;5043104;28;20036;-95
2022/07/11 00:46:05;;;;;;;3.83;1.70;;;;;;;19.93;48.16;99101.47;5043190;28;20032;-95
2022/07/11 00:48:30;;;;;;;2.72;1.60;;;;;;;20.08;47.66;99121.91;5043095;28;20025;-96
2022/07/11 00:50:56;;;;;;;3.05;1.50;;;;;;;20.09;47.50;99116.09;5043292;28;20119;-96
2022/07/11 00:53:22;;;;;;;2.65;1.65;;;;;;;19.95;47.46;99096.47;5042633;28;20051;-96
2022/07/11 00:55:48;;;;;;;3.88;1.65;;;;;;;20.06;47.64;99116.75;5042592;28;20032;-95
2022/07/11 00:58:13;;;;;;;2.78;1.60;;;;;;;20.02;47.72;99104.13;5043201;28;20470;-96
2022/07/11 01:00:39;;;;;;;4.63;1.98;;;;;;;20.23;47.07;99129.44;5043094;28;20098;-94
2022/07/11 01:03:05;;;;;;;4.47;1.50;;;;;;;20.01;47.13;99121.66;5043516;28;20031;-95
2022/07/11 01:05:30;;;;;;;4.25;1.65;;;;;;;19.86;47.59;99112.97;5043647;28;20123;-94
2022/07/11 01:07:56;;;;;;;2.85;1.65;;;;;;;19.88;47.19;99126.25;5056013;28;20048;-95
2022/07/11 01:10:22;;;;;;;5.15;1.60;;;;;;;19.85;47.65;99121.50;5043008;28;20028;-95
2022/07/11 01:12:48;;;;;;;3.30;1.48;;;;;;;19.75;47.87;99119.97;5042856;28;20029;-95
2022/07/11 01:15:17;;;;;;;3.42;1.50;;;;;;;19.87;47.15;99124.69;5059677;28;20406;-96
2022/07/11 01:17:44;;;;;;;3.78;1.65;;;;;;;19.78;47.82;99120.09;5058732;28;20422;-95
2022/07/11 01:20:10;;;;;;;3.55;1.48;;;;;;;19.83;48.23;99132.75;5042336;28;20391;-94
2022/07/11 01:22:50;;;;;;;3.63;1.50;;;;;;;19.88;47.76;99146.22;5042535;28;20127;-95
2022/07/11 01:25:31;;;;;;;3.35;1.45;;;;;;;19.84;48.05;99125.34;5042813;28;20028;-95
2022/07/11 01:28:04;;;;;;;2.50;1.55;;;;;;;19.76;48.14;99124.31;5046183;28;20532;-95
2022/07/11 01:30:30;;;;;;;3.97;1.75;;;;;;;19.70;48.09;99125.63;5042563;28;20043;-96
2022/07/11 01:32:56;;;;;;;5.13;1.55;;;;;;;19.77;48.26;99140.34;5041841;28;20029;-94
2022/07/11 01:35:21;;;;;;;2.38;1.52;;;;;;;19.72;48.44;99135.09;5040808;28;20216;-96
2022/07/11 01:37:47;;;;;;;2.20;1.50;;;;;;;19.58;48.05;99118.16;5041519;28;20085;-94
2022/07/11 01:40:12;;;;;;;2.40;1.60;;;;;;;19.59;48.51;99122.50;5058955;28;20031;-95
2022/07/11 01:42:38;;;;;;;4.60;1.67;;;;;;;19.65;48.06;99120.34;5041623;28;20032;-96
2022/07/11 01:45:04;;;;;;;5.70;1.80;;;;;;;19.67;47.83;99139.94;5042287;28;20020;-96
2022/07/11 01:47:29;;;;;;;3.28;1.40;;;;;;;19.43;48.79;99143.34;5041128;28;20025;-95
2022/07/11 01:49:55;;;;;;;1.95;1.52;;;;;;;19.53;48.77;99148.41;5041405;28;20060;-95
2022/07/11 01:52:21;;;;;;;2.75;1.60;;;;;;;19.44;49.43;99145.75;5041597;28;20020;-96
2022/07/11 01:54:47;;;;;;;2.15;1.52;;;;;;;19.38;49.24;99145.16;5042124;28;20024;-95
2022/07/11 01:57:13;;;;;;;3.25;1.60;;;;;;;19.39;48.97;99143.22;5057932;28;20501;-96
2022/07/11 01:59:38;;;;;;;4.38;1.98;;;;;;;19.39;48.45;99132.28;5041759;28;20027;-95
2022/07/11 02:02:04;;;;;;;4.90;1.83;;;;;;;19.26;49.37;99147.81;5041341;28;20031;-95
2022/07/11 02:04:29;;;;;;;3.15;1.80;;;;;;;19.18;49.17;99135.81;5041191;28;20551;-95
2022/07/11 02:06:55;;;;;;;6.30;2.05;;;;;;;19.11;49.20;99135.56;5049132;28;20048;-95
2022/07/11 02:09:20;;;;;;;2.10;1.42;;;;;;;19.05;49.24;99127.88;5060789;28;20432;-95
2022/07/11 02:11:47;;;;;;;2.67;1.60;;;;;;;19.10;49.08;99135.88;5062207;28;20054;-94
2022/07/11 02:14:12;;;;;;;1.88;1.45;;;;;;;19.15;49.54;99149.31;5061116;28;20032;-95
2022/07/11 02:16:38;;;;;;;2.22;1.60;;;;;;;18.96;49.45;99126.00;5061474;28;20027;-95
2022/07/11 02:19:04;;;;;;;3.83;1.60;;;;;;;19.05;49.36;99138.78;5061361;28;20016;-94
2022/07/11 02:21:29;;;;;;;5.93;1.67;;;;;;;19.05;49.06;99149.69;5061594;28;20024;-95
2022/07/11 02:23:55;;;;;;;3.33;1.88;;;;;;;18.93;49.41;99143.03;5061349;28;20543;-95
2022/07/11 02:26:20;;;;;;;4.18;1.70;;;;;;;18.97;49.73;99151.38;5061611;28;20027;-96
2022/07/11 02:28:46;;;;;;;3.22;1.50;;;;;;;18.86;49.68;99153.66;5061972;28;20027;-95
2022/07/11 02:31:12;;;;;;;5.18;1.90;;;;;;;18.90;50.04;99160.06;5061631;28;20038;-95
2022/07/11 02:33:37;;;;;;;3.58;1.70;;;;;;;18.95;50.09;99172.72;5061485;28;20020;-95
2022/07/11 02:36:03;;;;;;;2.10;1.50;;;;;;;18.94;49.97;99174.63;5061914;28;20035;-95
2022/07/11 02:38:29;;;;;;;3.95;1.63;;;;;;;18.85;49.74;99171.16;5061432;28;20497;-95
2022/07/11 02:40:54;;;;;;;3.55;1.60;;;;;;;18.87;49.69;99179.03;5061958;28;20028;-95
2022/07/11 02:43:20;;;;;;;5.63;1.63;;;;;;;18.87;50.12;99185.28;5077932;28;20024;-96
2022/07/11 02:45:46;;;;;;;2.92;1.40;;;;;;;18.78;50.09;99182.59;5078517;28;20077;-95
2022/07/11 02:48:12;;;;;;;5.30;1.70;;;;;;;18.79;50.19;99188.84;5059700;28;20023;-95
2022/07/11 02:50:37;;;;;;;2.85;2.53;;;;;;;18.78;50.19;99188.06;5061795;28;20573;-95
2022/07/11 02:53:03;;;;;;;2.80;1.70;;;;;;;18.75;50.11;99187.88;5060863;28;20104;-96
2022/07/11 02:55:29;;;;;;;3.75;1.55;;;;;;;18.53;51.04;99197.91;5061088;28;20020;-96
2022/07/11 02:57:54;;;;;;;1.95;1.40;;;;;;;18.52;51.00;99188.09;5062000;28;20020;-95
2022/07/11 03:00:20;;;;;;;1.83;1.40;;;;;;;18.53;50.65;99203.34;5061088;28;20020;-95
2022/07/11 03:02:45;;;;;;;4.88;1.65;;;;;;;18.57;50.95;99203.47;5060630;28;20016;-95
2022/07/11 03:05:12;;;;;;;2.85;1.58;;;;;;;18.43;51.42;99194.69;5060873;28;20134;-96
2022/07/11 03:07:38;;;;;;;3.20;1.55;;;;;;;18.43;51.45;99206.44;5060731;28;20498;-96
2022/07/11 03:10:04;;;;;;;3.55;1.50;;;;;;;18.45;50.99;99196.00;5060742;28;20028;-95
2022/07/11 03:12:29;;;;;;;4.82;1.50;;;;;;;18.45;51.29;99206.09;5060632;28;20020;-94
2022/07/11 03:14:55;;;;;;;2.15;1.63;;;;;;;18.37;50.92;99192.16;5060779;28;20020;-94
2022/07/11 03:17:21;;;;;;;5.60;1.67;;;;;;;18.51;51.10;99221.13;5060350;28;20036;-94
2022/07/11 03:19:49;;;;;;;3.72;1.63;;;;;;;18.36;51.62;99217.00;5060917;28;20035;-95
2022/07/11 03:22:15;;;;;;;8.75;1.95;;;;;;;18.40;51.64;99223.41;5061567;28;20473;-93
2022/07/11 03:24:41;;;;;;;6.20;1.70;;;;;;;18.40;52.00;99219.91;5060099;28;20027;-94
2022/07/11 03:27:07;;;;;;;7.07;1.70;;;;;;;18.34;52.04;99220.09;5060477;28;20024;-96
2022/07/11 03:29:33;;;;;;;4.25;1.60;;;;;;;18.42;51.63;99229.34;5059828;28;20059;-96
2022/07/11 03:31:59;;;;;;;1.95;1.38;;;;;;;18.38;51.81;99237.38;5061394;28;20020;-95
2022/07/11 03:34:24;;;;;;;6.65;1.88;;;;;;;18.37;52.30;99230.31;5060471;28;20555;-95
2022/07/11 03:36:50;;;;;;;2.80;1.55;;;;;;;18.36;52.73;99231.47;5060485;28;20465;-95
2022/07/11 03:39:16;;;;;;;3.05;1.65;;;;;;;18.43;52.14;99243.78;5061227;28;20044;-95
2022/07/11 03:41:41;;;;;;;3.90;2.30;;;;;;;18.59;52.73;99258.50;5060388;28;20558;-96
2022/07/11 03:44:07;;;;;;;4.97;2.60;;;;;;;18.57;52.14;99252.56;5059282;28;20527;-94
2022/07/11 03:46:33;;;;;;;3.53;1.70;;;;;;;18.60;51.54;99243.75;5059179;28;20020;-92
2022/07/11 03:48:59;;;;;;;6.28;2.38;;;;;;;18.64;53.15;99238.47;5075619;28;20027;-96
2022/07/11 03:51:24;;;;;;;4.85;1.90;;;;;;;18.54;52.23;99234.94;5058761;28;20028;-93
2022/07/11 03:53:50;;;;;;;2.92;1.60;;;;;;;18.76;51.34;99246.75;5058459;28;20016;-92
2022/07/11 03:56:18;;;;;;;2.67;1.60;;;;;;;18.64;51.37;99244.69;5058700;28;20485;-93
2022/07/11 03:58:43;;;;;;;4.72;1.70;;;;;;;18.64;51.85;99250.16;5059216;28;20020;-93
2022/07/11 04:01:09;;;;;;;2.97;1.50;;;;;;;18.66;51.16;99247.91;5076077;28;20097;-92
2022/07/11 04:03:34;;;;;;;6.55;2.00;;;;;;;18.57;52.62;99249.84;5058882;28;20020;-93
2022/07/11 04:06:00;;;;;;;3.72;1.48;;;;;;;18.64;52.42;99252.09;5059554;28;20058;-95
2022/07/11 04:08:53;;;;;;;4.57;1.60;;;;;;;18.69;51.20;99252.69;5079805;27;1450198;-94
2022/07/11 04:11:19;;;;;;;3.22;1.60;;;;;;;18.60;52.07;99243.75;5096239;28;20031;-93
2022/07/11 04:13:44;;;;;;;2.47;1.55;;;;;;;18.69;52.58;99254.63;5096371;28;20024;-93
2022/07/11 04:16:10;;;;;;;3.88;2.00;;;;;;;18.66;52.58;99249.84;5076472;28;20458;-91
2022/07/11 04:18:35;;;;;;;4.63;1.85;;;;;;;18.72;52.30;99257.50;5095916;28;20019;-92
2022/07/11 04:21:01;;;;;;;4.00;2.20;;;;;;;18.72;52.65;99248.53;5079976;28;20072;-93
2022/07/11 04:23:26;;;;;;;4.38;1.70;;;;;;;18.69;52.08;99241.00;5079101;28;20409;-92
2022/07/11 04:25:55;;;;;;;2.88;1.52;;;;;;;18.86;51.68;99254.59;5069249;28;20031;-92
2022/07/11 04:28:20;;;;;;;3.58;1.70;;;;;;;18.95;50.65;99251.84;5079867;28;20024;-94
2022/07/11 04:30:46;;;;;;;6.63;1.90;;;;;;;19.04;51.09;99254.53;5075087;28;20016;-92
2022/07/11 04:33:11;;;;;;;7.28;3.88;;;;;;;19.11;50.03;99252.09;5079339;28;20485;-92
2022/07/11 04:35:37;;;;;;;6.15;1.73;;;;;;;19.20;49.35;99241.94;5079075;28;20019;-92
2022/07/11 04:38:06;;;;;;;4.38;2.55;;;;;;;19.24;50.30;99255.75;5096938;28;20040;-95
2022/07/11 04:40:32;;;;;;;8.40;2.33;;;;;;;19.27;50.45;99260.53;5079621;28;20449;-91
2022/07/11 04:42:57;;;;;;;9.20;2.17;;;;;;;19.43;49.06;99272.50;5079577;28;20141;-91
2022/07/11 04:45:23;;;;;;;10.13;2.10;;;;;;;19.54;49.56;99262.78;5079445;28;20020;-92
2022/07/11 04:47:48;;;;;;;4.20;1.40;;;;;;;19.58;49.08;99258.25;5078838;28;20111;-94
2022/07/11 04:50:14;;;;;;;3.25;1.70;;;;;;;19.80;48.22;99278.25;5082122;28;20510;-92
2022/07/11 04:52:41;;;;;;;4.90;1.73;;;;;;;19.76;47.43;99280.03;5077974;28;20020;-92
2022/07/11 04:55:14;;;;;;;15.48;2.58;;;;;;;19.62;48.36;99265.78;5080705;28;20031;-92
2022/07/11 04:57:40;;;;;;;29.35;2.97;;;;;;;19.71;47.80;99280.22;5093600;28;20036;-94
2022/07/11 05:00:07;;;;;;;23.58;3.90;;;;;;;19.67;48.83;99285.53;5060489;28;20667;-91
2022/07/11 05:06:31;;;;;;;8.13;1.98;;;;;;;19.80;48.46;99305.56;5010704;28;20537;-93
2022/07/11 05:09:16;;;;;;;4.07;1.80;;;;;;;19.81;48.28;99303.63;4993097;28;20427;-94
2022/07/11 05:11:42;;;;;;;4.30;1.95;;;;;;;19.86;48.55;99300.69;5010460;28;20117;-91
2022/07/11 05:14:11;;;;;;;8.88;1.90;;;;;;;19.88;48.46;99299.25;4980982;28;20487;-94
2022/07/11 05:16:39;;;;;;;6.93;3.30;;;;;;;20.03;48.29;99303.31;5048821;28;20546;-90
2022/07/11 05:19:05;;;;;;;6.43;2.33;;;;;;;20.19;47.05;99304.31;5072645;28;20114;-92
2022/07/11 05:21:31;;;;;;;6.80;2.03;;;;;;;20.32;47.25;99321.56;5067599;28;20114;-92
2022/07/11 05:23:56;;;;;;;4.95;2.67;;;;;;;20.36;46.90;99303.34;5065061;28;20471;-94
2022/07/11 05:26:22;;;;;;;5.55;2.30;;;;;;;20.20;47.35;99305.09;5064147;28;20020;-92
2022/07/11 05:28:47;;;;;;;6.10;2.10;;;;;;;20.28;46.99;99303.44;5046367;28;20054;-92
2022/07/11 05:31:13;;;;;;;9.65;2.38;;;;;;;20.32;47.21;99296.97;5064763;28;20028;-93
2022/07/11 05:33:44;;;;;;;6.03;1.60;;;;;;;20.06;46.30;99288.16;5049239;28;20032;-92
2022/07/11 05:36:10;;;;;;;6.90;1.55;;;;;;;20.27;45.97;99307.28;5078808;28;20032;-91
2022/07/11 05:38:39;;;;;;;5.93;2.80;;;;;;;20.22;45.98;99308.31;5064837;28;20031;-92
2022/07/11 05:41:23;;;;;;;5.63;2.30;;;;;;;20.34;46.40;99299.38;5065138;28;20028;-93
2022/07/11 05:43:48;;;;;;;4.43;1.77;;;;;;;20.36;45.49;99313.50;5069967;28;20031;-92
2022/07/11 05:46:14;;;;;;;3.03;1.30;;;;;;;20.28;44.98;99306.97;5087833;28;20491;-91
2022/07/11 05:48:40;;;;;;;8.50;5.00;;;;;;;20.35;45.92;99320.88;5076016;28;20038;-91
2022/07/11 05:51:05;;;;;;;12.00;7.43;;;;;;;20.50;46.12;99322.22;5064308;28;20054;-93
2022/07/11 05:53:31;;;;;;;10.68;7.43;;;;;;;20.59;46.08;99309.28;5057541;28;20528;-91
2022/07/11 05:55:56;;;;;;;9.05;5.78;;;;;;;20.68;45.68;99317.41;5077814;28;20111;-92
2022/07/11 05:58:34;;;;;;;10.27;2.63;;;;;;;20.73;45.60;99309.00;5079506;28;20462;-94
2022/07/11 06:01:08;;;;;;;6.55;2.40;;;;;;;20.78;44.97;99316.19;5065520;28;20405;-94
2022/07/11 06:03:35;;;;;;;9.13;2.58;;;;;;;20.87;45.46;99307.88;5053535;28;20019;-93
2022/07/11 06:06:04;;;;;;;3.80;1.65;;;;;;;20.90;44.22;99302.53;5065965;28;20536;-92
2022/07/11 06:08:41;;;;;;;3.08;1.35;;;;;;;21.05;43.67;99303.78;5063331;28;20052;-94
2022/07/11 06:11:16;;;;;;;3.38;1.35;;;;;;;20.97;45.45;99291.00;5070807;28;20114;-94
2022/07/11 06:13:44;;;;;;;7.70;1.50;;;;;;;21.04;44.09;99306.88;5066756;28;20035;-93
2022/07/11 06:16:13;;;;;;;3.72;1.67;;;;;;;21.15;43.37;99302.56;5067818;28;20027;-95
2022/07/11 06:18:39;;;;;;;8.40;2.03;;;;;;;21.12;43.90;99290.34;5067682;28;21534;-90
2022/07/11 06:21:05;;;;;;;6.32;1.83;;;;;;;21.19;44.20;99301.53;5052227;28;20021;-94
2022/07/11 06:23:40;;;;;;;4.25;1.63;;;;;;;21.29;43.92;99305.78;5064005;28;20047;-93
2022/07/11 06:26:05;;;;;;;9.85;1.90;;;;;;;21.28;43.73;99300.63;5063853;28;20039;-94
2022/07/11 06:28:31;;;;;;;4.88;1.60;;;;;;;21.41;43.04;99304.94;5045111;28;20028;-90
2022/07/11 06:30:56;;;;;;;3.85;1.50;;;;;;;21.42;42.39;99300.28;5043690;28;20032;-91
2022/07/11 06:33:22;;;;;;;6.70;1.50;;;;;;;21.46;42.42;99323.94;5044504;28;20023;-92
2022/07/11 06:35:48;;;;;;;3.28;1.50;;;;;;;21.36;42.70;99316.94;5045655;28;20031;-94
2022/07/11 06:38:14;;;;;;;6.68;1.70;;;;;;;21.41;42.35;99315.91;5044756;28;20194;-94
2022/07/11 06:40:46;;;;;;;6.45;1.40;;;;;;;21.29;42.54;99305.78;5044839;28;20047;-92
2022/07/11 06:43:12;;;;;;;6.03;3.40;;;;;;;21.44;42.99;99325.44;5061125;28;20417;-95
2022/07/11 06:45:40;;;;;;;3.95;1.33;;;;;;;21.36;42.72;99308.72;5045680;28;20024;-93
2022/07/11 06:48:08;;;;;;;5.57;1.30;;;;;;;21.37;42.72;99306.78;5046061;28;20032;-94
2022/07/11 06:50:36;;;;;;;3.00;1.63;;;;;;;21.31;42.19;99299.94;5061551;28;20473;-92
2022/07/11 06:53:02;;;;;;;6.05;1.88;;;;;;;21.44;42.50;99309.78;5044113;28;20114;-89
2022/07/11 06:55:28;;;;;;;7.18;2.17;;;;;;;21.67;42.54;99321.09;5078269;28;20052;-91
2022/07/11 06:57:58;;;;;;;5.15;1.27;;;;;;;21.72;41.69;99333.75;5044179;28;20028;-94
2022/07/11 07:00:27;;;;;;;5.03;1.60;;;;;;;21.84;42.10;99330.19;5062350;28;20396;-94
2022/07/11 07:03:08;;;;;;;;;;;;;;;;;;;;;
2022/07/11 07:06:00;;;;;;;5.30;1.50;;;;;;;22.13;40.66;99337.34;5080192;28;20401;-96
2022/07/11 07:08:32;;;;;;;5.70;1.52;;;;;;;21.97;40.53;99338.03;5080925;28;20050;-93
2022/07/11 07:10:58;;;;;;;;;;;;;;;22.15;40.10;99354.25;5050097;28;20529;-94
2022/07/11 07:13:28;;;;;;;6.00;1.50;;;;;;;22.03;39.70;99333.13;5075250;28;19962;-95
2022/07/11 07:16:12;;;;;;;10.90;1.20;;;;;;;22.03;40.22;99324.91;5065224;28;20092;-94
2022/07/11 07:18:40;;;;;;;7.32;1.67;;;;;;;22.15;40.36;99330.34;5064979;28;20091;-95
2022/07/11 07:21:07;;;;;;;3.22;1.60;;;;;;;22.13;39.07;99320.88;5079587;28;20497;-92
2022/07/11 07:23:36;;;;;;;2.33;1.30;;;;;;;22.20;38.83;99321.91;5052093;28;20024;-89
2022/07/11 07:26:12;;;;;;;4.47;2.78;;;;;;;22.26;39.33;99318.94;5063074;28;20036;-96
2022/07/11 07:28:46;;;;;;;2.60;1.40;;;;;;;22.48;39.67;99326.63;5057538;28;20031;-96
2022/07/11 07:31:40;;;;;;;4.40;1.70;;;;;;;22.51;38.61;99314.94;5074794;28;20027;-95
2022/07/11 07:34:58;;;;;;;3.60;1.60;;;;;;;22.66;38.92;99316.16;5273755;22;20062;-94
2022/07/11 07:41:05;;;;;;;3.17;1.40;;;;;;;22.60;37.61;99318.34;4954860;29;20041;-95
2022/07/11 07:43:41;;;;;;;6.70;2.40;;;;;;;22.74;37.99;99311.63;4962045;28;20031;-95
2022/07/11 07:46:26;;;;;;;5.30;1.60;;;;;;;22.77;38.27;99302.69;4980563;28;20081;-93
2022/07/11 08:06:28;;;;;;;6.03;1.30;;;;;;;23.09;35.63;99314.53;5940731;23;20589;-94
2022/07/11 08:09:06;;;;;;;3.25;1.17;;;;;;;23.12;35.11;99333.06;4953437;28;20043;-95
2022/07/11 08:11:42;;;;;;;3.38;1.10;;;;;;;23.15;34.55;99321.34;4934048;28;20042;-95
2022/07/11 08:14:17;;;;;;;3.80;1.13;;;;;;;23.19;34.79;99330.47;4948619;28;20022;-94
2022/07/11 08:16:49;;;;;;;;;;;;;;;23.29;34.40;99342.91;4895566;29;20036;-94
2022/07/11 08:19:15;;;;;;;2.55;1.13;;;;;;;23.24;35.24;99310.19;4900680;29;20026;-94
2022/07/11 08:21:47;;;;;;;3.95;1.15;;;;;;;23.45;34.52;99322.84;4891295;29;20059;-92
2022/07/11 08:24:53;;;;;;;4.20;1.17;;;;;;;23.44;34.90;99302.03;4886290;29;20036;-94
2022/07/11 08:27:18;;;;;;;7.75;1.90;;;;;;;23.79;34.71;99330.38;4889337;29;20036;-94
2022/07/11 08:29:44;;;;;;;2.35;1.15;;;;;;;23.75;33.30;99304.72;4871765;29;20032;-94
2022/07/11 08:32:12;;;;;;;3.25;1.20;;;;;;;23.93;33.42;99318.09;4874556;29;20532;-95
2022/07/11 08:34:44;;;;;;;5.75;1.50;;;;;;;23.82;33.50;99312.34;4876865;29;20076;-96
2022/07/11 08:37:10;;;;;;;4.00;1.30;;;;;;;23.82;33.35;99315.09;4873647;29;20047;-94
2022/07/11 08:40:43;;;;;;;;;;;;;;;;;;;;;
2022/07/11 08:43:50;;;;;;;4.22;1.20;;;;;;;23.72;33.61;99299.13;4911888;29;20111;-93
2022/07/11 08:46:27;;;;;;;3.13;1.15;;;;;;;23.98;33.00;99342.56;4857955;29;20535;-94
2022/07/11 08:49:13;;;;;;;4.10;1.30;;;;;;;23.87;32.72;99314.03;4857224;29;20084;-93
2022/07/11 08:51:56;;;;;;;5.22;1.20;;;;;;;23.90;33.03;99307.81;4905664;29;20050;-96
2022/07/11 08:54:44;;;;;;;4.28;1.10;;;;;;;23.92;31.72;99320.03;4886854;29;20036;-95
2022/07/11 08:57:37;;;;;;;9.55;2.05;;;;;;;23.96;32.82;99317.38;4908190;29;20047;-95
2022/07/11 09:00:14;;;;;;;7.25;1.23;;;;;;;24.07;31.21;99314.84;4931104;29;20055;-96
2022/07/11 09:03:14;;;;;;;8.27;1.15;;;;;;;24.14;31.92;99318.56;4933262;28;20079;-96
2022/07/11 09:05:46;;;;;;;5.35;1.30;;;;;;;24.18;31.10;99326.88;4952317;28;20046;-94
2022/07/11 09:08:11;;;;;;;;;;;;;;;24.36;29.99;99365.75;4978282;28;20105;-93
2022/07/11 09:10:45;;;;;;;4.00;0.90;;;;;;;24.14;30.11;99326.00;4973037;28;19917;-94
2022/07/11 09:13:36;;;;;;;6.88;1.35;;;;;;;24.14;29.88;99323.25;4953354;28;20038;-95
2022/07/11 09:16:15;;;;;;;4.65;1.27;;;;;;;24.09;30.01;99318.81;4937258;29;20043;-94
2022/07/11 09:18:44;;;;;;;6.07;1.20;;;;;;;24.31;30.65;99330.28;4937645;29;20101;-95
2022/07/11 09:27:12;;;;;;;7.03;1.20;;;;;;;24.56;29.27;99339.88;4935997;28;20089;-92
2022/07/11 09:29:40;;;;;;;0.95;0.70;;;;;;;24.62;29.19;99336.84;4934060;28;20035;-95
2022/07/11 09:32:30;;;;;;;8.93;2.08;;;;;;;24.56;30.38;99348.13;4953873;28;20026;-94
2022/07/11 09:38:37;;;;;;;9.07;1.30;;;;;;;24.55;26.44;99343.78;4922011;29;20038;-94
2022/07/11 09:41:10;;;;;;;5.80;0.90;;;;;;;24.43;26.62;99345.88;4878211;29;20036;-93
2022/07/11 09:44:07;;;;;;;3.53;0.80;;;;;;;24.44;26.29;99319.94;4872724;29;20036;-93
2022/07/11 09:46:32;;;;;;;2.95;0.65;;;;;;;24.49;24.67;99323.22;4882893;29;20036;-90
2022/07/11 09:49:00;;;;;;;3.25;0.82;;;;;;;24.64;24.82;99334.50;4921411;29;20028;-92
2022/07/11 09:51:26;;;;;;;1.55;0.60;;;;;;;24.67;24.17;99353.84;4905487;29;20032;-91
2022/07/11 09:53:58;;;;;;;3.72;1.00;;;;;;;24.64;24.71;99329.00;4964223;28;20049;-90
2022/07/11 09:56:33;;;;;;;2.63;0.90;;;;;;;24.53;23.79;99361.81;4964205;28;20022;-89
2022/07/11 09:59:00;;;;;;;4.97;0.73;;;;;;;24.44;23.44;99325.44;4980532;28;20089;-90
2022/07/11 10:01:29;;;;;;;3.50;1.65;;;;;;;24.63;24.17;99341.97;4947096;28;20053;-90
2022/07/11 10:03:55;;;;;;;6.07;2.17;;;;;;;24.68;26.59;99319.66;4961969;28;20022;-94
2022/07/11 10:06:23;;;;;;;4.50;0.90;;;;;;;24.89;23.69;99340.50;4923076;29;20056;-94
2022/07/11 10:08:50;;;;;;;2.10;0.85;;;;;;;24.96;24.67;99324.06;4947840;29;20055;-93
2022/07/11 10:11:15;;;;;;;4.60;0.70;;;;;;;25.02;24.03;99339.94;4913585;29;20077;-91
2022/07/11 10:13:41;;;;;;;5.53;2.15;;;;;;;24.82;23.46;99330.16;4916913;29;20449;-94
2022/07/11 10:16:40;;;;;;;1.67;0.90;;;;;;;25.04;23.21;99347.84;4911008;29;20086;-93
2022/07/11 10:19:13;;;;;;;6.72;0.85;;;;;;;25.10;23.99;99351.88;4924353;29;20041;-95
2022/07/11 10:21:56;;;;;;;1.92;0.85;;;;;;;25.00;23.03;99324.94;4926634;29;20031;-93
2022/07/11 10:24:50;;;;;;;3.13;0.90;;;;;;;24.94;22.69;99334.66;4914854;29;20031;-94
2022/07/11 10:27:35;;;;;;;1.45;0.70;;;;;;;25.00;23.13;99347.75;4920287;29;20074;-93
2022/07/11 10:30:01;;;;;;;2.13;0.60;;;;;;;24.97;22.37;99353.22;4942670;29;20031;-93
2022/07/11 10:32:27;;;;;;;5.38;1.10;;;;;;;24.91;22.97;99341.72;4926818;29;20039;-93
2022/07/11 10:35:26;;;;;;;1.90;0.95;;;;;;;25.04;23.12;99350.59;4926567;29;20031;-94
2022/07/11 10:37:52;;;;;;;4.65;0.80;;;;;;;25.03;22.90;99332.47;4886150;29;20050;-94
2022/07/11 10:40:57;;;;;;;2.92;0.60;;;;;;;25.02;23.01;99311.59;4910552;29;20035;-95
2022/07/11 10:43:36;;;;;;;10.15;0.93;;;;;;;25.10;23.53;99320.78;4848353;29;20077;-92
2022/07/11 10:46:22;;;;;;;8.45;1.00;;;;;;;25.23;24.63;99321.41;4869825;29;20066;-92
2022/07/11 10:48:58;;;;;;;5.53;0.82;;;;;;;25.52;23.35;99334.50;4945465;29;20512;-91
2022/07/11 10:51:55;;;;;;;4.47;1.30;;;;;;;25.67;23.71;99352.06;4924424;29;20039;-93
2022/07/11 10:54:42;;;;;;;2.95;0.93;;;;;;;25.44;23.46;99346.56;4945042;29;20027;-93
2022/07/11 10:57:49;;;;;;;5.67;1.30;;;;;;;25.57;24.24;99338.91;4933602;29;20528;-94
2022/07/11 11:00:16;;;;;;;6.03;1.55;;;;;;;25.33;23.48;99329.06;4939287;29;20282;-94
2022/07/11 11:03:04;;;;;;;1.42;0.52;;;;;;;25.52;23.05;99356.53;4924473;29;20035;-93
2022/07/11 11:05:52;;;;;;;5.20;0.77;;;;;;;25.24;22.53;99320.28;4978756;28;20117;-95
2022/07/11 11:08:35;;;;;;;2.42;0.60;;;;;;;25.59;23.78;99353.13;4945156;28;20105;-94
2022/07/11 11:11:02;;;;;;;5.07;1.30;;;;;;;25.69;23.34;99346.16;4950654;29;20027;-94
2022/07/11 11:14:09;;;;;;;3.55;0.80;;;;;;;25.79;22.36;99357.38;4938994;29;20023;-91
2022/07/11 11:16:35;;;;;;;1.67;0.70;;;;;;;25.61;22.01;99340.56;4956637;28;20011;-93
2022/07/11 11:19:21;;;;;;;4.15;1.25;;;;;;;25.57;22.58;99323.16;4912927;29;20512;-94
2022/07/11 11:22:00;;;;;;;2.03;0.65;;;;;;;25.46;22.56;99324.94;4882064;29;20037;-91
2022/07/11 11:25:08;;;;;;;;;;;;;;;;;;;;;
2022/07/11 11:28:08;;;;;;;7.45;1.98;;;;;;;25.84;22.81;99353.50;4838274;29;20105;-96
2022/07/11 11:34:39;;;;;;;1.85;0.93;;;;;;;26.05;22.86;99353.03;4817253;29;20014;-96
2022/07/11 11:37:14;;;;;;;2.05;0.82;;;;;;;26.07;23.36;99353.47;4819239;29;20083;-96
2022/07/11 11:52:57;;;;;;;3.28;1.67;;;;;;;26.39;22.54;99339.25;4842367;29;20064;-96
2022/07/11 11:55:50;;;;;;;1.42;0.80;;;;;;;26.37;23.62;99342.41;4848608;29;20170;-96
2022/07/11 11:58:17;;;;;;;2.78;2.05;;;;;;;26.33;21.67;99338.78;4908621;29;20072;-96
2022/07/11 12:01:22;;;;;;;;;;;;;;;;;;;;;
2022/07/11 12:04:19;;;;;;;2.30;1.10;;;;;;;26.24;23.23;99310.69;4948715;29;20039;-96
2022/07/11 12:07:06;;;;;;;;;;;;;;;;;;;;;
2022/07/11 12:18:29;;;;;;;4.10;0.70;;;;;;;26.28;22.44;99336.38;4904920;29;20043;-95
2022/07/11 12:20:54;;;;;;;4.20;0.90;;;;;;;26.07;22.98;99336.13;4870614;29;20042;-92
2022/07/11 12:23:34;;;;;;;3.00;1.00;;;;;;;26.21;23.76;99350.91;4885419;29;20039;-92
2022/07/11 12:29:27;;;;;;;2.30;0.90;;;;;;;26.60;24.00;99339.56;5443425;23;20071;-96
2022/07/11 12:36:04;;;;;;;1.83;0.80;;;;;;;26.85;23.51;99329.94;5281203;23;20093;-94
2022/07/11 12:45:07;;;;;;;;;;;;;;;;;;;;;
2022/07/11 12:46:24;;;;;;;3.67;0.80;;;;;;;27.30;22.46;99331.56;4935757;29;20521;-93
2022/07/11 12:49:27;;;;;;;5.25;2.55;;;;;;;27.61;23.10;99335.75;4947202;29;20173;-94
2022/07/11 12:52:13;;;;;;;1.63;0.90;;;;;;;27.34;22.60;99313.03;4947573;29;20031;-96
2022/07/11 12:54:50;;;;;;;;;;;;;;;;;;;;;
2022/07/11 12:57:20;;;;;;;3.00;1.10;;;;;;;27.35;22.60;99341.47;4956537;29;20122;-91
2022/07/11 12:59:46;;;;;;;3.42;0.93;;;;;;;27.28;22.29;99322.06;4940535;29;20069;-93
2022/07/11 13:02:12;;;;;;;1.98;0.90;;;;;;;27.17;22.88;99338.53;4951781;28;20033;-92
2022/07/11 13:04:57;;;;;;;0.93;0.70;;;;;;;27.18;22.25;99340.91;4967497;28;20038;-91
2022/07/11 13:10:50;;;;;;;3.67;0.85;;;;;;;27.18;22.35;99324.31;4990348;28;20360;-92
2022/07/11 13:13:19;;;;;;;4.43;0.70;;;;;;;27.16;22.48;99334.19;4981959;28;20022;-95
2022/07/11 13:15:52;;;;;;;3.80;0.90;;;;;;;27.21;23.11;99311.72;4965981;28;20019;-93
2022/07/11 13:18:23;;;;;;;3.00;0.90;;;;;;;27.53;22.41;99331.34;4967750;28;20491;-93
2022/07/11 13:20:53;;;;;;;3.13;0.82;;;;;;;27.62;22.49;99331.00;4964213;28;20111;-93